createdAt,value
2018-02-15T00:00:43.353Z,65.47
2018-02-15T00:02:36.269Z,65.66
2018-02-15T00:03:36.311Z,65.37
2018-02-15T00:05:29.146Z,64.74
2018-02-15T00:06:29.159Z,65.75
2018-02-15T00:08:22.064Z,64.99
2018-02-15T00:09:22.062Z,65.84
2018-02-15T00:11:15.005Z,65.75
2018-02-15T00:12:14.969Z,65.50
2018-02-15T00:14:07.859Z,65.21
2018-02-15T00:15:07.870Z,65.59
2018-02-15T00:17:00.782Z,65.78
2018-02-15T00:18:00.774Z,65.12
2018-02-15T00:19:53.681Z,65.69
2018-02-15T00:20:53.690Z,65.59
2018-02-15T00:22:46.580Z,64.64
2018-02-15T00:23:46.576Z,64.93
2018-02-15T00:25:39.466Z,65.21
2018-02-15T00:26:39.553Z,64.64
2018-02-15T00:28:32.389Z,65.97
2018-02-15T00:29:32.383Z,64.64
2018-02-15T00:31:25.289Z,65.02
2018-02-15T00:32:25.280Z,64.55
2018-02-15T00:34:18.171Z,65.21
2018-02-15T00:35:18.183Z,64.83
2018-02-15T00:37:11.132Z,65.02
2018-02-15T00:38:11.120Z,65.12
2018-02-15T00:40:03.970Z,65.97
2018-02-15T00:41:03.982Z,65.69
2018-02-15T00:42:56.896Z,65.78
2018-02-15T00:43:56.882Z,65.21
2018-02-15T00:45:49.842Z,65.12
2018-02-15T00:46:49.783Z,64.64
2018-02-15T00:48:42.754Z,65.59
2018-02-15T00:49:42.712Z,65.78
2018-02-15T00:51:35.595Z,65.59
2018-02-15T00:52:35.589Z,65.40
2018-02-15T00:54:28.478Z,65.50
2018-02-15T00:55:28.489Z,65.02
2018-02-15T00:57:21.400Z,65.40
2018-02-15T00:58:21.390Z,65.40
2018-02-15T01:00:14.279Z,65.59
2018-02-15T01:01:14.291Z,65.40
2018-02-15T01:03:07.203Z,65.50
2018-02-15T01:04:07.196Z,65.59
2018-02-15T01:06:00.103Z,65.40
2018-02-15T01:07:00.127Z,65.50
2018-02-15T01:08:53.024Z,65.50
2018-02-15T01:09:53.018Z,65.40
2018-02-15T01:11:45.939Z,65.59
2018-02-15T01:12:45.933Z,65.88
2018-02-15T01:14:38.860Z,65.21
2018-02-15T01:15:38.834Z,65.21
2018-02-15T01:17:31.745Z,65.02
2018-02-15T01:18:31.736Z,64.93
2018-02-15T01:20:24.627Z,65.59
2018-02-15T01:21:24.639Z,65.69
2018-02-15T01:23:17.547Z,64.83
2018-02-15T01:24:17.540Z,64.64
2018-02-15T01:26:10.467Z,64.93
2018-02-15T01:27:10.451Z,64.26
2018-02-15T01:29:03.360Z,64.45
2018-02-15T01:30:03.352Z,64.45
2018-02-15T01:31:56.263Z,64.64
2018-02-15T01:32:56.255Z,64.64
2018-02-15T01:34:49.158Z,64.36
2018-02-15T01:35:49.174Z,64.74
2018-02-15T01:37:42.083Z,64.45
2018-02-15T01:38:42.073Z,63.79
2018-02-15T01:40:35.010Z,63.60
2018-02-15T01:41:35.038Z,63.89
2018-02-15T01:43:27.891Z,64.17
2018-02-15T01:44:27.887Z,64.26
2018-02-15T01:46:20.796Z,64.26
2018-02-15T01:47:20.808Z,64.45
2018-02-15T01:49:13.717Z,64.45
2018-02-15T01:50:13.712Z,64.26
2018-02-15T01:52:06.620Z,63.79
2018-02-15T01:53:06.615Z,63.79
2018-02-15T01:54:59.501Z,63.04
2018-02-15T01:55:59.515Z,63.70
2018-02-15T01:57:52.490Z,63.23
2018-02-15T01:58:52.431Z,63.04
2018-02-15T02:00:45.312Z,62.66
2018-02-15T02:01:45.324Z,62.37
2018-02-15T02:03:38.236Z,63.13
2018-02-15T02:04:38.230Z,62.75
2018-02-15T02:06:31.119Z,62.75
2018-02-15T02:07:31.133Z,62.69
2018-02-15T02:09:24.071Z,62.50
2018-02-15T02:10:24.065Z,62.50
2018-02-15T02:12:16.982Z,62.50
2018-02-15T02:13:16.975Z,62.59
2018-02-15T02:15:09.863Z,62.59
2018-02-15T02:16:09.878Z,62.59
2018-02-15T02:18:02.786Z,62.02
2018-02-15T02:19:02.779Z,62.02
2018-02-15T02:20:55.672Z,62.02
2018-02-15T02:21:55.691Z,62.02
2018-02-15T02:23:48.599Z,61.36
2018-02-15T02:24:48.583Z,62.12
2018-02-15T02:26:41.479Z,60.89
2018-02-15T02:27:41.491Z,61.27
2018-02-15T02:29:34.404Z,61.46
2018-02-15T02:30:34.398Z,61.83
2018-02-15T02:32:27.310Z,60.99
2018-02-15T02:33:27.300Z,60.89
2018-02-15T02:35:20.187Z,61.18
2018-02-15T02:36:20.200Z,60.13
2018-02-15T02:38:13.129Z,60.32
2018-02-15T02:39:13.114Z,60.13
2018-02-15T02:41:06.008Z,59.47
2018-02-15T02:42:06.023Z,59.66
2018-02-15T02:43:58.931Z,60.22
2018-02-15T02:44:58.923Z,59.47
2018-02-15T02:46:51.826Z,59.94
2018-02-15T02:47:51.842Z,59.28
2018-02-15T02:49:44.752Z,59.28
2018-02-15T02:50:44.747Z,59.38
2018-02-15T02:52:37.663Z,59.84
2018-02-15T02:53:37.652Z,59.66
2018-02-15T02:55:30.541Z,59.66
2018-02-15T02:56:30.555Z,59.56
2018-02-15T02:58:23.483Z,60.32
2018-02-15T02:59:23.473Z,60.32
2018-02-15T03:01:16.361Z,59.75
2018-02-15T03:02:16.376Z,59.94
2018-02-15T03:04:09.282Z,59.75
2018-02-15T03:05:09.306Z,59.66
2018-02-15T03:07:02.172Z,59.47
2018-02-15T03:08:02.187Z,59.56
2018-02-15T03:09:55.108Z,59.47
2018-02-15T03:10:55.102Z,59.47
2018-02-15T03:12:48.016Z,59.66
2018-02-15T03:13:48.010Z,59.84
2018-02-15T03:15:40.901Z,59.94
2018-02-15T03:16:40.916Z,59.09
2018-02-15T03:18:33.825Z,59.38
2018-02-15T03:19:33.825Z,59.75
2018-02-15T03:21:26.708Z,59.38
2018-02-15T03:22:26.722Z,59.28
2018-02-15T03:24:19.631Z,59.94
2018-02-15T03:25:19.621Z,59.84
2018-02-15T03:27:12.513Z,59.09
2018-02-15T03:28:12.526Z,59.09
2018-02-15T03:30:05.435Z,59.56
2018-02-15T03:31:05.440Z,59.38
2018-02-15T03:32:58.338Z,59.38
2018-02-15T03:33:58.334Z,59.56
2018-02-15T03:35:51.238Z,59.66
2018-02-15T03:36:51.237Z,59.19
2018-02-15T03:38:44.195Z,59.09
2018-02-15T03:39:44.139Z,59.28
2018-02-15T03:41:37.034Z,59.09
2018-02-15T03:42:37.041Z,59.66
2018-02-15T03:44:29.948Z,59.38
2018-02-15T03:45:29.943Z,58.90
2018-02-15T03:47:22.832Z,58.81
2018-02-15T03:48:22.842Z,59.00
2018-02-15T03:50:15.754Z,58.81
2018-02-15T03:51:15.747Z,58.90
2018-02-15T03:53:08.659Z,58.90
2018-02-15T03:54:08.650Z,58.90
2018-02-15T03:56:01.541Z,58.62
2018-02-15T03:57:01.554Z,58.71
2018-02-15T03:58:54.490Z,58.62
2018-02-15T03:59:54.486Z,58.62
2018-02-15T04:01:47.376Z,59.38
2018-02-15T04:02:47.393Z,58.62
2018-02-15T04:04:40.331Z,58.14
2018-02-15T04:05:40.294Z,57.67
2018-02-15T04:07:33.186Z,58.24
2018-02-15T04:08:33.199Z,58.33
2018-02-15T04:10:26.109Z,57.20
2018-02-15T04:11:26.103Z,57.20
2018-02-15T04:13:19.019Z,57.20
2018-02-15T04:14:19.010Z,57.39
2018-02-15T04:16:11.901Z,57.57
2018-02-15T04:17:11.915Z,57.57
2018-02-15T04:19:04.822Z,57.57
2018-02-15T04:20:04.818Z,57.01
2018-02-15T04:21:57.709Z,56.82
2018-02-15T04:22:57.722Z,56.82
2018-02-15T04:24:50.631Z,55.52
2018-02-15T04:25:50.626Z,55.77
2018-02-15T04:27:43.519Z,55.43
2018-02-15T04:28:43.533Z,55.87
2018-02-15T04:30:36.440Z,56.09
2018-02-15T04:31:36.433Z,55.80
2018-02-15T04:33:29.347Z,56.37
2018-02-15T04:34:29.339Z,56.18
2018-02-15T04:36:22.304Z,55.87
2018-02-15T04:37:22.241Z,55.96
2018-02-15T04:39:15.151Z,56.85
2018-02-15T04:40:15.144Z,56.27
2018-02-15T04:42:08.040Z,56.56
2018-02-15T04:43:08.050Z,56.15
2018-02-15T04:45:00.960Z,56.25
2018-02-15T04:46:00.957Z,56.53
2018-02-15T04:47:53.845Z,57.23
2018-02-15T04:48:53.861Z,57.51
2018-02-15T04:50:46.768Z,57.42
2018-02-15T04:51:46.765Z,57.29
2018-02-15T04:53:39.684Z,56.56
2018-02-15T04:54:39.668Z,57.13
2018-02-15T04:56:32.556Z,57.23
2018-02-15T04:57:32.571Z,57.32
2018-02-15T04:59:25.481Z,56.94
2018-02-15T05:00:25.492Z,56.75
2018-02-15T05:02:18.392Z,57.13
2018-02-15T05:03:18.396Z,56.09
2018-02-15T05:05:11.338Z,56.09
2018-02-15T05:06:11.331Z,56.37
2018-02-15T05:08:04.222Z,55.80
2018-02-15T05:09:04.248Z,56.09
2018-02-15T05:10:57.155Z,55.90
2018-02-15T05:11:57.152Z,56.09
2018-02-15T05:13:50.062Z,55.80
2018-02-15T05:14:50.056Z,55.24
2018-02-15T05:16:42.949Z,54.95
2018-02-15T05:17:42.963Z,54.57
2018-02-15T05:19:35.874Z,54.57
2018-02-15T05:20:35.868Z,54.57
2018-02-15T05:22:28.762Z,54.19
2018-02-15T05:23:28.773Z,54.28
2018-02-15T05:25:21.683Z,55.14
2018-02-15T05:26:21.679Z,54.67
2018-02-15T05:28:14.574Z,54.28
2018-02-15T05:29:14.586Z,53.91
2018-02-15T05:31:07.499Z,54.47
2018-02-15T05:32:07.490Z,53.91
2018-02-15T05:34:00.411Z,54.57
2018-02-15T05:35:00.399Z,54.28
2018-02-15T05:36:53.292Z,53.91
2018-02-15T05:37:53.305Z,54.19
2018-02-15T05:39:46.718Z,54.86
2018-02-15T05:40:46.712Z,55.43
2018-02-15T05:42:39.604Z,55.05
2018-02-15T05:43:39.618Z,55.05
2018-02-15T05:45:32.531Z,56.18
2018-02-15T05:46:32.525Z,57.04
2018-02-15T05:48:25.432Z,56.94
2018-02-15T05:49:25.446Z,57.23
2018-02-15T05:51:18.360Z,57.04
2018-02-15T05:52:18.353Z,57.32
2018-02-15T05:54:11.261Z,59.12
2018-02-15T05:55:11.257Z,59.22
2018-02-15T05:57:04.144Z,60.92
2018-02-15T05:58:04.160Z,62.05
2018-02-15T05:59:57.073Z,63.20
2018-02-15T06:00:57.070Z,63.48
2018-02-15T06:02:49.958Z,65.09
2018-02-15T06:03:50.083Z,65.28
2018-02-15T06:05:42.888Z,65.75
2018-02-15T06:06:42.880Z,66.89
2018-02-15T06:08:35.776Z,68.40
2018-02-15T06:09:35.790Z,68.79
2018-02-15T06:11:28.709Z,70.39
2018-02-15T06:12:28.698Z,71.34
2018-02-15T06:14:21.613Z,72.29
2018-02-15T06:15:21.606Z,72.86
2018-02-15T06:17:14.500Z,72.77
2018-02-15T06:18:14.511Z,73.33
2018-02-15T06:20:07.425Z,74.28
2018-02-15T06:21:07.419Z,74.85
2018-02-15T06:23:00.317Z,75.32
2018-02-15T06:24:00.328Z,75.42
2018-02-15T06:25:53.242Z,76.27
2018-02-15T06:26:53.235Z,76.36
2018-02-15T06:28:46.131Z,76.42
2018-02-15T06:29:46.144Z,77.08
2018-02-15T06:31:39.053Z,77.46
2018-02-15T06:32:39.049Z,78.59
2018-02-15T06:34:31.962Z,78.98
2018-02-15T06:35:31.962Z,79.26
2018-02-15T06:37:24.854Z,79.93
2018-02-15T06:38:24.867Z,80.02
2018-02-15T06:40:17.776Z,80.77
2018-02-15T06:41:17.770Z,81.63
2018-02-15T06:43:10.661Z,81.53
2018-02-15T06:44:10.673Z,81.53
2018-02-15T06:46:03.585Z,81.82
2018-02-15T06:47:03.580Z,81.82
2018-02-15T06:48:56.476Z,81.82
2018-02-15T06:49:56.491Z,82.86
2018-02-15T06:51:49.403Z,82.86
2018-02-15T06:52:49.398Z,82.48
2018-02-15T06:54:42.308Z,82.67
2018-02-15T06:55:42.303Z,83.14
2018-02-15T06:57:35.193Z,83.14
2018-02-15T06:58:35.207Z,83.33
2018-02-15T07:00:28.116Z,83.52
2018-02-15T07:01:28.110Z,83.90
2018-02-15T07:03:21.152Z,84.09
2018-02-15T07:04:21.161Z,84.00
2018-02-15T07:06:14.073Z,84.38
2018-02-15T07:07:14.068Z,84.56
2018-02-15T07:09:06.963Z,84.85
2018-02-15T07:10:06.977Z,84.85
2018-02-15T07:11:59.887Z,84.85
2018-02-15T07:12:59.883Z,84.94
2018-02-15T07:14:52.812Z,85.04
2018-02-15T07:15:52.788Z,85.04
2018-02-15T07:17:45.685Z,84.94
2018-02-15T07:18:45.693Z,85.61
2018-02-15T07:20:38.606Z,85.80
2018-02-15T07:21:38.599Z,86.65
2018-02-15T07:23:31.498Z,86.46
2018-02-15T07:24:31.514Z,86.55
2018-02-15T07:26:24.430Z,86.83
2018-02-15T07:27:24.417Z,87.17
2018-02-15T07:29:17.319Z,87.93
2018-02-15T07:30:17.325Z,87.55
2018-02-15T07:32:10.236Z,88.21
2018-02-15T07:33:10.231Z,88.31
2018-02-15T07:35:03.190Z,88.78
2018-02-15T07:36:03.137Z,88.97
2018-02-15T07:37:56.088Z,89.25
2018-02-15T07:38:56.040Z,89.35
2018-02-15T07:40:48.951Z,89.82
2018-02-15T07:41:48.952Z,89.54
2018-02-15T07:43:41.839Z,89.73
2018-02-15T07:44:41.850Z,90.11
2018-02-15T07:46:34.765Z,90.39
2018-02-15T07:47:34.757Z,90.77
2018-02-15T07:49:27.676Z,91.05
2018-02-15T07:50:27.662Z,91.24
2018-02-15T07:52:20.577Z,90.86
2018-02-15T07:53:20.571Z,91.43
2018-02-15T07:55:13.501Z,91.05
2018-02-15T07:56:13.491Z,91.43
2018-02-15T07:58:06.379Z,91.05
2018-02-15T07:59:06.393Z,91.53
2018-02-15T08:00:59.330Z,91.38
2018-02-15T08:01:59.324Z,91.34
2018-02-15T08:03:52.215Z,91.43
2018-02-15T08:04:52.229Z,92.10
2018-02-15T08:06:45.141Z,92.00
2018-02-15T08:07:45.134Z,91.72
2018-02-15T08:09:38.036Z,92.57
2018-02-15T08:10:38.050Z,92.00
2018-02-15T08:12:30.972Z,93.23
2018-02-15T08:13:30.966Z,92.76
2018-02-15T08:15:23.893Z,93.23
2018-02-15T08:16:23.882Z,93.13
2018-02-15T08:18:16.784Z,93.70
2018-02-15T08:19:16.795Z,93.80
2018-02-15T08:21:09.706Z,93.89
2018-02-15T08:22:09.700Z,93.80
2018-02-15T08:24:02.602Z,93.84
2018-02-15T08:25:02.615Z,94.70
2018-02-15T08:26:55.525Z,93.65
2018-02-15T08:27:55.521Z,94.13
2018-02-15T08:29:48.416Z,94.04
2018-02-15T08:30:48.429Z,93.56
2018-02-15T08:32:41.343Z,93.75
2018-02-15T08:33:41.336Z,93.65
2018-02-15T08:35:34.245Z,93.84
2018-02-15T08:36:34.240Z,93.75
2018-02-15T08:38:27.133Z,93.84
2018-02-15T08:39:27.145Z,93.94
2018-02-15T08:41:20.059Z,93.56
2018-02-15T08:42:20.052Z,93.75
2018-02-15T08:44:12.951Z,93.46
2018-02-15T08:45:12.967Z,93.84
2018-02-15T08:47:05.878Z,93.46
2018-02-15T08:48:05.869Z,93.37
2018-02-15T08:49:58.760Z,93.18
2018-02-15T08:50:58.774Z,92.80
2018-02-15T08:52:51.686Z,92.71
2018-02-15T08:53:51.683Z,92.90
2018-02-15T08:55:44.599Z,92.43
2018-02-15T08:56:44.595Z,92.52
2018-02-15T08:58:37.539Z,92.33
2018-02-15T08:59:37.500Z,92.52
2018-02-15T09:01:30.415Z,91.90
2018-02-15T09:02:30.408Z,92.00
2018-02-15T09:04:23.302Z,91.90
2018-02-15T09:05:23.322Z,91.90
2018-02-15T09:07:16.232Z,92.00
2018-02-15T09:08:16.232Z,91.90
2018-02-15T09:10:09.122Z,92.00
2018-02-15T09:11:09.134Z,91.81
2018-02-15T09:13:02.050Z,91.76
2018-02-15T09:14:02.044Z,92.05
2018-02-15T09:15:54.966Z,92.33
2018-02-15T09:16:54.996Z,92.43
2018-02-15T09:18:47.854Z,92.57
2018-02-15T09:19:47.867Z,92.28
2018-02-15T09:21:40.781Z,92.57
2018-02-15T09:22:40.776Z,91.52
2018-02-15T09:24:33.670Z,92.00
2018-02-15T09:25:33.682Z,91.90
2018-02-15T09:27:26.598Z,92.00
2018-02-15T09:28:26.616Z,92.09
2018-02-15T09:30:19.527Z,91.81
2018-02-15T09:31:19.513Z,92.09
2018-02-15T09:33:12.414Z,91.43
2018-02-15T09:34:12.418Z,91.90
2018-02-15T09:36:05.323Z,92.09
2018-02-15T09:37:05.318Z,92.19
2018-02-15T09:38:58.216Z,92.09
2018-02-15T09:39:58.230Z,91.90
2018-02-15T09:41:51.161Z,91.24
2018-02-15T09:42:51.152Z,91.62
2018-02-15T09:44:44.045Z,91.43
2018-02-15T09:45:44.062Z,91.52
2018-02-15T09:47:36.975Z,91.24
2018-02-15T09:48:36.971Z,91.62
2018-02-15T09:50:29.864Z,91.62
2018-02-15T09:51:29.879Z,91.71
2018-02-15T09:53:22.801Z,91.90
2018-02-15T09:54:22.812Z,91.71
2018-02-15T09:56:15.710Z,91.62
2018-02-15T09:57:15.708Z,91.71
2018-02-15T09:59:08.598Z,91.62
2018-02-15T10:00:08.616Z,91.24
2018-02-15T10:02:01.525Z,91.14
2018-02-15T10:03:01.522Z,91.43
2018-02-15T10:04:54.418Z,91.24
2018-02-15T10:05:54.436Z,91.05
2018-02-15T10:07:47.344Z,90.67
2018-02-15T10:08:47.346Z,91.14
2018-02-15T10:10:40.274Z,90.39
2018-02-15T10:11:40.251Z,90.01
2018-02-15T10:13:33.168Z,89.53
2018-02-15T10:14:33.170Z,89.96
2018-02-15T10:16:26.080Z,89.86
2018-02-15T10:17:26.079Z,89.20
2018-02-15T10:19:18.964Z,88.92
2018-02-15T10:20:18.985Z,88.73
2018-02-15T10:22:11.903Z,88.73
2018-02-15T10:23:11.902Z,87.77
2018-02-15T10:25:04.800Z,87.21
2018-02-15T10:26:04.808Z,86.55
2018-02-15T10:27:57.724Z,86.45
2018-02-15T10:28:57.719Z,86.45
2018-02-15T10:30:50.611Z,86.45
2018-02-15T10:31:50.627Z,86.07
2018-02-15T10:33:43.546Z,86.16
2018-02-15T10:34:43.539Z,86.45
2018-02-15T10:36:36.506Z,86.45
2018-02-15T10:37:36.460Z,85.69
2018-02-15T10:39:29.356Z,85.69
2018-02-15T10:40:29.372Z,85.60
2018-02-15T10:42:22.293Z,85.31
2018-02-15T10:43:22.291Z,85.50
2018-02-15T10:45:15.226Z,85.97
2018-02-15T10:46:15.223Z,85.41
2018-02-15T10:48:08.133Z,85.78
2018-02-15T10:49:08.130Z,85.74
2018-02-15T10:51:01.027Z,85.93
2018-02-15T10:52:01.059Z,86.30
2018-02-15T10:53:53.958Z,86.59
2018-02-15T10:54:53.955Z,86.59
2018-02-15T10:56:46.854Z,86.02
2018-02-15T10:57:46.864Z,86.59
2018-02-15T10:59:39.781Z,86.49
2018-02-15T11:00:39.781Z,86.68
2018-02-15T11:02:32.694Z,86.59
2018-02-15T11:03:32.690Z,86.68
2018-02-15T11:05:25.591Z,86.30
2018-02-15T11:06:25.603Z,86.11
2018-02-15T11:08:18.519Z,86.49
2018-02-15T11:09:18.517Z,86.30
2018-02-15T11:11:11.418Z,86.68
2018-02-15T11:12:11.431Z,86.68
2018-02-15T11:14:04.370Z,86.21
2018-02-15T11:15:04.356Z,86.68
2018-02-15T11:16:57.250Z,86.40
2018-02-15T11:17:57.266Z,86.30
2018-02-15T11:19:50.181Z,87.06
2018-02-15T11:20:50.178Z,87.35
2018-02-15T11:22:43.095Z,87.82
2018-02-15T11:23:43.089Z,87.63
2018-02-15T11:25:35.985Z,88.29
2018-02-15T11:26:36.001Z,88.10
2018-02-15T11:28:28.923Z,88.29
2018-02-15T11:29:28.919Z,88.20
2018-02-15T11:31:21.817Z,87.73
2018-02-15T11:32:21.832Z,87.63
2018-02-15T11:34:14.755Z,88.20
2018-02-15T11:35:14.748Z,88.20
2018-02-15T11:37:07.644Z,88.10
2018-02-15T11:38:07.658Z,88.01
2018-02-15T11:40:00.576Z,88.20
2018-02-15T11:41:00.568Z,88.10
2018-02-15T11:42:53.488Z,88.68
2018-02-15T11:43:53.487Z,88.87
2018-02-15T11:45:46.382Z,88.96
2018-02-15T11:46:46.396Z,89.25
2018-02-15T11:48:39.312Z,89.15
2018-02-15T11:49:39.344Z,88.96
2018-02-15T11:51:32.206Z,88.68
2018-02-15T11:52:32.218Z,88.68
2018-02-15T11:54:25.135Z,88.87
2018-02-15T11:55:25.129Z,89.15
2018-02-15T11:57:18.052Z,89.34
2018-02-15T11:58:18.052Z,88.68
2018-02-15T12:00:10.971Z,88.96
2018-02-15T12:01:10.969Z,88.68
2018-02-15T12:03:03.882Z,88.77
2018-02-15T12:04:03.880Z,88.96
2018-02-15T12:05:56.784Z,88.58
2018-02-15T12:06:56.791Z,88.77
2018-02-15T12:08:49.708Z,88.68
2018-02-15T12:09:49.706Z,88.77
2018-02-15T12:11:42.604Z,88.01
2018-02-15T12:12:42.621Z,88.10
2018-02-15T12:14:35.538Z,88.58
2018-02-15T12:15:35.535Z,88.96
2018-02-15T12:17:28.431Z,88.77
2018-02-15T12:18:28.446Z,88.96
2018-02-15T12:20:21.365Z,88.29
2018-02-15T12:21:21.359Z,88.87
2018-02-15T12:23:14.280Z,89.34
2018-02-15T12:24:14.270Z,89.39
2018-02-15T12:26:07.169Z,89.62
2018-02-15T12:27:07.186Z,89.58
2018-02-15T12:29:00.106Z,89.39
2018-02-15T12:30:00.106Z,89.29
2018-02-15T12:32:04.082Z,89.39
2018-02-15T12:33:04.092Z,89.10
2018-02-15T12:34:57.014Z,89.29
2018-02-15T12:35:57.008Z,88.91
2018-02-15T12:37:49.925Z,89.58
2018-02-15T12:38:49.923Z,89.15
2018-02-15T12:40:42.820Z,89.48
2018-02-15T12:41:42.835Z,89.29
2018-02-15T12:43:35.750Z,89.20
2018-02-15T12:44:35.745Z,89.76
2018-02-15T12:46:28.649Z,89.58
2018-02-15T12:47:28.663Z,90.00
2018-02-15T12:49:21.583Z,90.00
2018-02-15T12:50:21.577Z,90.48
2018-02-15T12:52:14.537Z,90.38
2018-02-15T12:53:14.493Z,90.48
2018-02-15T12:55:07.407Z,90.48
2018-02-15T12:56:07.409Z,91.00
2018-02-15T12:58:00.317Z,90.33
2018-02-15T12:59:00.311Z,90.43
2018-02-15T13:00:53.210Z,90.10
2018-02-15T13:01:53.233Z,90.14
2018-02-15T13:03:46.142Z,90.43
2018-02-15T13:04:46.140Z,90.52
2018-02-15T13:06:39.051Z,90.38
2018-02-15T13:07:39.050Z,90.71
2018-02-15T13:09:31.964Z,90.43
2018-02-15T13:10:31.959Z,90.81
2018-02-15T13:12:24.859Z,90.90
2018-02-15T13:13:24.872Z,91.28
2018-02-15T13:15:17.783Z,90.81
2018-02-15T13:16:17.785Z,91.09
2018-02-15T13:18:10.700Z,90.81
2018-02-15T13:19:10.700Z,91.09
2018-02-15T13:21:03.592Z,90.90
2018-02-15T13:22:03.608Z,90.71
2018-02-15T13:23:56.525Z,91.19
2018-02-15T13:24:56.520Z,91.19
2018-02-15T13:26:50.404Z,91.38
2018-02-15T13:27:50.423Z,91.19
2018-02-15T13:29:43.335Z,90.71
2018-02-15T13:30:43.348Z,90.90
2018-02-15T13:32:36.228Z,90.71
2018-02-15T13:33:36.245Z,90.90
2018-02-15T13:35:29.152Z,90.62
2018-02-15T13:36:29.149Z,90.81
2018-02-15T13:38:22.066Z,91.00
2018-02-15T13:39:22.060Z,90.81
2018-02-15T13:41:14.956Z,90.81
2018-02-15T13:42:14.973Z,90.90
2018-02-15T13:44:07.888Z,91.09
2018-02-15T13:45:07.884Z,90.90
2018-02-15T13:47:00.780Z,91.28
2018-02-15T13:48:00.795Z,90.71
2018-02-15T13:49:53.715Z,91.66
2018-02-15T13:50:53.710Z,91.66
2018-02-15T13:52:46.608Z,91.85
2018-02-15T13:53:46.634Z,91.28
2018-02-15T13:55:39.543Z,91.19
2018-02-15T13:56:39.544Z,91.00
2018-02-15T13:58:32.460Z,90.90
2018-02-15T13:59:32.450Z,90.71
2018-02-15T14:01:25.411Z,91.00
2018-02-15T14:02:25.913Z,90.05
2018-02-15T14:04:18.287Z,91.38
2018-02-15T14:05:18.286Z,90.81
2018-02-15T14:07:11.186Z,91.24
2018-02-15T14:08:11.199Z,91.52
2018-02-15T14:10:04.127Z,91.75
2018-02-15T14:11:04.114Z,91.56
2018-02-15T14:12:57.012Z,91.56
2018-02-15T14:13:57.028Z,91.52
2018-02-15T14:15:49.939Z,91.33
2018-02-15T14:16:49.980Z,91.66
2018-02-15T14:18:43.028Z,91.66
2018-02-15T14:19:43.020Z,91.66
2018-02-15T14:21:36.003Z,91.75
2018-02-15T14:22:35.952Z,91.66
2018-02-15T14:24:28.845Z,91.38
2018-02-15T14:25:28.841Z,90.90
2018-02-15T14:27:21.741Z,91.56
2018-02-15T14:28:21.758Z,91.47
2018-02-15T14:30:14.679Z,91.28
2018-02-15T14:31:14.670Z,91.09
2018-02-15T14:33:07.585Z,90.90
2018-02-15T14:34:07.580Z,91.00
2018-02-15T14:36:01.005Z,91.19
2018-02-15T14:37:01.004Z,91.66
2018-02-15T14:38:54.163Z,91.56
2018-02-15T14:39:54.122Z,91.66
2018-02-15T14:41:47.044Z,91.38
2018-02-15T14:42:47.059Z,91.75
2018-02-15T14:44:40.025Z,92.23
2018-02-15T14:45:39.996Z,91.94
2018-02-15T14:47:32.891Z,92.61
2018-02-15T14:48:32.907Z,92.61
2018-02-15T14:50:25.833Z,92.04
2018-02-15T14:51:25.835Z,92.42
2018-02-15T14:53:18.714Z,91.85
2018-02-15T14:54:18.758Z,91.85
2018-02-15T14:56:11.660Z,91.85
2018-02-15T14:57:11.658Z,91.94
2018-02-15T14:59:04.567Z,92.04
2018-02-15T15:00:04.574Z,91.94
2018-02-15T15:01:57.477Z,92.33
2018-02-15T15:02:57.526Z,91.75
2018-02-15T15:04:50.635Z,92.04
2018-02-15T15:05:50.618Z,92.52
2018-02-15T15:07:43.566Z,92.14
2018-02-15T15:08:43.529Z,92.99
2018-02-15T15:10:36.442Z,93.27
2018-02-15T15:11:36.459Z,92.90
2018-02-15T15:13:29.334Z,92.90
2018-02-15T15:14:29.350Z,92.99
2018-02-15T15:16:22.263Z,92.80
2018-02-15T15:17:22.261Z,92.61
2018-02-15T15:19:15.183Z,92.71
2018-02-15T15:20:15.204Z,93.08
2018-02-15T15:22:08.340Z,93.46
2018-02-15T15:23:08.339Z,93.46
2018-02-15T15:25:01.250Z,93.75
2018-02-15T15:26:01.248Z,93.56
2018-02-15T15:27:54.141Z,93.84
2018-02-15T15:28:54.153Z,93.56
2018-02-15T15:30:47.070Z,93.94
2018-02-15T15:31:47.160Z,94.13
2018-02-15T15:33:39.965Z,93.37
2018-02-15T15:34:39.979Z,93.37
2018-02-15T15:36:32.975Z,93.65
2018-02-15T15:37:32.917Z,93.46
2018-02-15T15:39:25.793Z,93.37
2018-02-15T15:40:25.807Z,93.27
2018-02-15T15:42:18.763Z,93.56
2018-02-15T15:43:18.725Z,93.37
2018-02-15T15:45:11.639Z,93.18
2018-02-15T15:46:11.636Z,92.99
2018-02-15T15:48:04.552Z,93.08
2018-02-15T15:49:04.570Z,92.90
2018-02-15T15:50:57.486Z,93.08
2018-02-15T15:51:57.484Z,92.99
2018-02-15T15:53:50.382Z,92.99
2018-02-15T15:54:50.399Z,93.18
2018-02-15T15:56:43.311Z,93.65
2018-02-15T15:57:43.306Z,93.65
2018-02-15T15:59:36.208Z,93.27
2018-02-15T16:00:36.223Z,93.46
2018-02-15T16:02:29.194Z,93.37
2018-02-15T16:03:29.136Z,93.37
2018-02-15T16:05:22.053Z,93.37
2018-02-15T16:06:22.051Z,93.37
2018-02-15T16:08:14.940Z,93.27
2018-02-15T16:09:14.957Z,93.37
2018-02-15T16:11:07.874Z,93.56
2018-02-15T16:12:07.869Z,93.56
2018-02-15T16:14:00.766Z,92.99
2018-02-15T16:15:00.781Z,92.99
2018-02-15T16:16:53.705Z,92.99
2018-02-15T16:17:53.690Z,93.46
2018-02-15T16:19:46.584Z,93.46
2018-02-15T16:20:46.598Z,93.18
2018-02-15T16:22:39.515Z,93.08
2018-02-15T16:23:39.530Z,92.99
2018-02-15T16:25:32.498Z,93.18
2018-02-15T16:26:32.419Z,93.65
2018-02-15T16:28:25.313Z,93.27
2018-02-15T16:29:25.369Z,93.27
2018-02-15T16:31:18.296Z,93.27
2018-02-15T16:32:18.245Z,93.27
2018-02-15T16:34:11.146Z,93.37
2018-02-15T16:35:11.157Z,93.27
2018-02-15T16:37:04.075Z,92.99
2018-02-15T16:38:04.065Z,92.99
2018-02-15T16:39:57.003Z,92.99
2018-02-15T16:40:56.978Z,92.90
2018-02-15T16:42:50.123Z,92.90
2018-02-15T16:43:50.128Z,92.90
2018-02-15T16:45:43.321Z,92.99
2018-02-15T16:46:43.269Z,92.61
2018-02-15T16:48:36.167Z,92.99
2018-02-15T16:49:36.179Z,92.90
2018-02-15T16:51:29.104Z,92.71
2018-02-15T16:52:29.089Z,93.08
2018-02-15T16:54:21.985Z,92.85
2018-02-15T16:55:22.002Z,93.08
2018-02-15T16:57:14.916Z,92.99
2018-02-15T16:58:14.912Z,92.99
2018-02-15T17:00:07.813Z,92.80
2018-02-15T17:01:07.830Z,92.80
2018-02-15T17:03:00.800Z,92.99
2018-02-15T17:04:00.749Z,92.80
2018-02-15T17:05:53.658Z,92.99
2018-02-15T17:06:53.652Z,93.04
2018-02-15T17:08:46.586Z,93.13
2018-02-15T17:09:46.567Z,93.04
2018-02-15T17:11:39.687Z,93.70
2018-02-15T17:12:39.660Z,93.41
2018-02-15T17:14:32.555Z,93.41
2018-02-15T17:15:32.571Z,93.51
2018-02-15T17:17:25.569Z,93.32
2018-02-15T17:18:25.517Z,93.60
2018-02-15T17:20:18.380Z,93.23
2018-02-15T17:21:18.398Z,93.41
2018-02-15T17:23:11.312Z,93.41
2018-02-15T17:24:11.308Z,93.51
2018-02-15T17:26:04.223Z,93.41
2018-02-15T17:27:04.218Z,93.51
2018-02-15T17:28:57.143Z,93.51
2018-02-15T17:29:57.161Z,93.32
2018-02-15T17:31:50.072Z,93.51
2018-02-15T17:32:50.068Z,93.60
2018-02-15T17:34:42.993Z,93.51
2018-02-15T17:35:42.989Z,93.41
2018-02-15T17:37:35.905Z,93.32
2018-02-15T17:38:35.902Z,93.23
2018-02-15T17:40:28.797Z,93.41
2018-02-15T17:41:28.815Z,93.23
2018-02-15T17:43:21.736Z,93.32
2018-02-15T17:44:21.732Z,93.51
2018-02-15T17:46:14.648Z,93.04
2018-02-15T17:47:14.652Z,93.23
2018-02-15T17:49:07.743Z,93.04
2018-02-15T17:50:07.762Z,93.04
2018-02-15T17:52:00.684Z,93.04
2018-02-15T17:53:00.687Z,92.94
2018-02-15T17:54:53.566Z,93.04
2018-02-15T17:55:53.583Z,93.13
2018-02-15T17:57:46.500Z,92.94
2018-02-15T17:58:46.499Z,93.13
2018-02-15T18:00:39.401Z,93.13
2018-02-15T18:01:39.415Z,92.75
2018-02-15T18:03:32.357Z,93.13
2018-02-15T18:04:32.356Z,93.04
2018-02-15T18:06:25.273Z,92.94
2018-02-15T18:07:25.272Z,92.85
2018-02-15T18:09:18.165Z,93.60
2018-02-15T18:10:18.182Z,93.32
2018-02-15T18:12:11.101Z,93.23
2018-02-15T18:13:11.098Z,93.41
2018-02-15T18:15:03.998Z,93.51
2018-02-15T18:16:04.013Z,93.70
2018-02-15T18:17:56.926Z,93.41
2018-02-15T18:18:56.923Z,93.60
2018-02-15T18:20:49.826Z,93.99
2018-02-15T18:21:49.853Z,93.99
2018-02-15T18:23:42.752Z,93.32
2018-02-15T18:24:42.748Z,93.70
2018-02-15T18:26:35.670Z,93.41
2018-02-15T18:27:35.676Z,93.70
2018-02-15T18:29:28.569Z,93.51
2018-02-15T18:30:28.606Z,93.99
2018-02-15T18:32:21.499Z,93.89
2018-02-15T18:33:21.498Z,93.70